sensor_id;sensor_type;location;lat;lon;timestamp;temperature;humidity
20446;DHT22;10382;49.140;9.234;2023-06-19T00:00:43;25.40;82.50
20446;DHT22;10382;49.140;9.234;2023-06-19T00:03:10;25.40;83.30
20446;DHT22;10382;49.140;9.234;2023-06-19T00:05:37;25.20;84.40
20446;DHT22;10382;49.140;9.234;2023-06-19T00:08:04;25.10;84.80
20446;DHT22;10382;49.140;9.234;2023-06-19T00:10:33;25.10;85.10
20446;DHT22;10382;49.140;9.234;2023-06-19T00:13:00;25.10;86.70
20446;DHT22;10382;49.140;9.234;2023-06-19T00:15:27;25.00;87.80
20446;DHT22;10382;49.140;9.234;2023-06-19T00:17:55;25.00;89.00
20446;DHT22;10382;49.140;9.234;2023-06-19T00:20:23;24.80;90.00
20446;DHT22;10382;49.140;9.234;2023-06-19T00:22:49;24.60;90.90
20446;DHT22;10382;49.140;9.234;2023-06-19T00:25:17;24.20;92.30
20446;DHT22;10382;49.140;9.234;2023-06-19T00:27:46;24.00;93.50
20446;DHT22;10382;49.140;9.234;2023-06-19T00:30:13;23.80;94.70
20446;DHT22;10382;49.140;9.234;2023-06-19T00:32:40;23.70;95.90
20446;DHT22;10382;49.140;9.234;2023-06-19T00:35:13;23.60;96.90
20446;DHT22;10382;49.140;9.234;2023-06-19T00:37:41;23.60;97.40
20446;DHT22;10382;49.140;9.234;2023-06-19T00:40:14;23.70;98.00
20446;DHT22;10382;49.140;9.234;2023-06-19T00:42:42;23.70;98.60
20446;DHT22;10382;49.140;9.234;2023-06-19T00:45:11;23.70;99.20
20446;DHT22;10382;49.140;9.234;2023-06-19T00:47:38;23.80;99.60
20446;DHT22;10382;49.140;9.234;2023-06-19T00:50:05;23.80;99.90
20446;DHT22;10382;49.140;9.234;2023-06-19T00:52:33;23.80;99.90
20446;DHT22;10382;49.140;9.234;2023-06-19T00:55:00;23.90;99.90
20446;DHT22;10382;49.140;9.234;2023-06-19T00:57:28;23.90;99.90
20446;DHT22;10382;49.140;9.234;2023-06-19T00:59:55;24.00;99.90
20446;DHT22;10382;49.140;9.234;2023-06-19T01:02:24;24.00;99.90
20446;DHT22;10382;49.140;9.234;2023-06-19T01:04:52;24.00;99.90
20446;DHT22;10382;49.140;9.234;2023-06-19T01:07:25;23.90;99.90
20446;DHT22;10382;49.140;9.234;2023-06-19T01:09:58;23.90;99.90
20446;DHT22;10382;49.140;9.234;2023-06-19T01:12:33;23.90;99.90
20446;DHT22;10382;49.140;9.234;2023-06-19T01:15:02;23.90;99.90
20446;DHT22;10382;49.140;9.234;2023-06-19T01:17:32;24.00;99.90
20446;DHT22;10382;49.140;9.234;2023-06-19T01:19:59;24.00;99.90
20446;DHT22;10382;49.140;9.234;2023-06-19T01:22:33;24.00;99.90
20446;DHT22;10382;49.140;9.234;2023-06-19T01:24:59;24.10;99.90
20446;DHT22;10382;49.140;9.234;2023-06-19T01:27:27;24.00;99.80
20446;DHT22;10382;49.140;9.234;2023-06-19T01:29:56;24.00;99.70
20446;DHT22;10382;49.140;9.234;2023-06-19T01:32:29;23.90;98.50
20446;DHT22;10382;49.140;9.234;2023-06-19T01:34:59;24.00;98.90
20446;DHT22;10382;49.140;9.234;2023-06-19T01:37:28;23.90;98.90
20446;DHT22;10382;49.140;9.234;2023-06-19T01:40:02;23.90;99.30
20446;DHT22;10382;49.140;9.234;2023-06-19T01:42:31;23.90;99.90
20446;DHT22;10382;49.140;9.234;2023-06-19T01:44:58;23.90;99.90
20446;DHT22;10382;49.140;9.234;2023-06-19T01:47:25;23.90;99.90
20446;DHT22;10382;49.140;9.234;2023-06-19T01:49:52;23.90;99.90
20446;DHT22;10382;49.140;9.234;2023-06-19T01:52:19;23.90;99.90
20446;DHT22;10382;49.140;9.234;2023-06-19T01:54:46;23.90;99.90
20446;DHT22;10382;49.140;9.234;2023-06-19T01:57:15;23.80;99.90
20446;DHT22;10382;49.140;9.234;2023-06-19T01:59:43;23.80;99.90
20446;DHT22;10382;49.140;9.234;2023-06-19T02:02:10;23.80;99.90
20446;DHT22;10382;49.140;9.234;2023-06-19T02:04:37;23.70;99.90
20446;DHT22;10382;49.140;9.234;2023-06-19T02:07:04;23.80;99.90
20446;DHT22;10382;49.140;9.234;2023-06-19T02:09:31;23.70;99.90
20446;DHT22;10382;49.140;9.234;2023-06-19T02:11:58;23.70;99.90
20446;DHT22;10382;49.140;9.234;2023-06-19T02:14:26;23.70;99.90
20446;DHT22;10382;49.140;9.234;2023-06-19T02:16:53;23.70;99.90
20446;DHT22;10382;49.140;9.234;2023-06-19T02:19:20;23.80;99.90
20446;DHT22;10382;49.140;9.234;2023-06-19T02:21:46;23.70;99.90
20446;DHT22;10382;49.140;9.234;2023-06-19T02:24:13;23.80;99.90
20446;DHT22;10382;49.140;9.234;2023-06-19T02:26:40;23.80;99.90
20446;DHT22;10382;49.140;9.234;2023-06-19T02:29:09;23.80;99.90
20446;DHT22;10382;49.140;9.234;2023-06-19T02:31:37;23.80;99.90
20446;DHT22;10382;49.140;9.234;2023-06-19T02:34:04;23.80;99.90
20446;DHT22;10382;49.140;9.234;2023-06-19T02:36:31;23.70;99.90
20446;DHT22;10382;49.140;9.234;2023-06-19T02:38:58;23.70;99.90
20446;DHT22;10382;49.140;9.234;2023-06-19T02:41:25;23.60;99.90
20446;DHT22;10382;49.140;9.234;2023-06-19T02:43:52;23.60;99.90
20446;DHT22;10382;49.140;9.234;2023-06-19T02:46:19;23.70;99.90
20446;DHT22;10382;49.140;9.234;2023-06-19T02:48:47;23.70;99.90
20446;DHT22;10382;49.140;9.234;2023-06-19T02:51:14;23.70;99.90
20446;DHT22;10382;49.140;9.234;2023-06-19T02:53:41;23.80;99.90
20446;DHT22;10382;49.140;9.234;2023-06-19T02:56:09;23.80;99.90
20446;DHT22;10382;49.140;9.234;2023-06-19T02:58:36;23.90;99.90
20446;DHT22;10382;49.140;9.234;2023-06-19T03:01:03;23.90;99.90
20446;DHT22;10382;49.140;9.234;2023-06-19T03:03:32;24.00;99.90
20446;DHT22;10382;49.140;9.234;2023-06-19T03:06:06;24.10;99.90
20446;DHT22;10382;49.140;9.234;2023-06-19T03:08:33;24.30;99.90
20446;DHT22;10382;49.140;9.234;2023-06-19T03:11:00;24.30;99.90
20446;DHT22;10382;49.140;9.234;2023-06-19T03:13:29;24.30;99.90
20446;DHT22;10382;49.140;9.234;2023-06-19T03:15:56;24.30;99.90
20446;DHT22;10382;49.140;9.234;2023-06-19T03:18:23;24.40;99.90
20446;DHT22;10382;49.140;9.234;2023-06-19T03:20:50;24.40;99.90
20446;DHT22;10382;49.140;9.234;2023-06-19T03:23:18;24.30;99.90
20446;DHT22;10382;49.140;9.234;2023-06-19T03:25:45;24.20;99.90
20446;DHT22;10382;49.140;9.234;2023-06-19T03:28:12;24.20;99.90
20446;DHT22;10382;49.140;9.234;2023-06-19T03:30:38;24.30;99.90
20446;DHT22;10382;49.140;9.234;2023-06-19T03:33:05;24.30;99.90
20446;DHT22;10382;49.140;9.234;2023-06-19T03:35:32;24.30;99.90
20446;DHT22;10382;49.140;9.234;2023-06-19T03:37:59;24.20;99.90
20446;DHT22;10382;49.140;9.234;2023-06-19T03:40:27;24.10;99.90
20446;DHT22;10382;49.140;9.234;2023-06-19T03:42:54;24.00;99.90
20446;DHT22;10382;49.140;9.234;2023-06-19T03:45:21;23.80;99.90
20446;DHT22;10382;49.140;9.234;2023-06-19T03:47:48;23.70;99.90
20446;DHT22;10382;49.140;9.234;2023-06-19T03:50:15;23.70;99.90
20446;DHT22;10382;49.140;9.234;2023-06-19T03:52:42;23.80;99.90
20446;DHT22;10382;49.140;9.234;2023-06-19T03:55:09;23.80;99.90
20446;DHT22;10382;49.140;9.234;2023-06-19T03:57:37;23.80;99.90
20446;DHT22;10382;49.140;9.234;2023-06-19T04:00:05;23.60;99.90
20446;DHT22;10382;49.140;9.234;2023-06-19T04:02:33;23.70;99.90
20446;DHT22;10382;49.140;9.234;2023-06-19T04:05:00;23.80;99.90
20446;DHT22;10382;49.140;9.234;2023-06-19T04:07:27;23.80;99.90
20446;DHT22;10382;49.140;9.234;2023-06-19T04:09:54;23.90;99.90
20446;DHT22;10382;49.140;9.234;2023-06-19T04:12:20;24.00;99.90
20446;DHT22;10382;49.140;9.234;2023-06-19T04:14:49;24.00;99.90
20446;DHT22;10382;49.140;9.234;2023-06-19T04:17:16;24.00;99.90
20446;DHT22;10382;49.140;9.234;2023-06-19T04:19:44;23.90;99.90
20446;DHT22;10382;49.140;9.234;2023-06-19T04:22:10;24.00;99.90
20446;DHT22;10382;49.140;9.234;2023-06-19T04:24:37;24.00;99.90
20446;DHT22;10382;49.140;9.234;2023-06-19T04:27:04;24.10;99.90
20446;DHT22;10382;49.140;9.234;2023-06-19T04:29:33;24.20;99.90
20446;DHT22;10382;49.140;9.234;2023-06-19T04:32:02;24.30;99.90
20446;DHT22;10382;49.140;9.234;2023-06-19T04:34:37;24.30;99.90
20446;DHT22;10382;49.140;9.234;2023-06-19T04:37:04;24.30;99.90
20446;DHT22;10382;49.140;9.234;2023-06-19T04:39:31;24.40;99.90
20446;DHT22;10382;49.140;9.234;2023-06-19T04:41:59;24.50;99.90
20446;DHT22;10382;49.140;9.234;2023-06-19T04:44:25;24.50;99.90
20446;DHT22;10382;49.140;9.234;2023-06-19T04:46:52;24.60;99.90
20446;DHT22;10382;49.140;9.234;2023-06-19T04:49:27;24.60;99.90
20446;DHT22;10382;49.140;9.234;2023-06-19T04:51:55;24.60;99.90
20446;DHT22;10382;49.140;9.234;2023-06-19T04:54:22;24.70;99.90
20446;DHT22;10382;49.140;9.234;2023-06-19T04:56:49;24.70;99.90
20446;DHT22;10382;49.140;9.234;2023-06-19T04:59:16;24.70;99.90
20446;DHT22;10382;49.140;9.234;2023-06-19T05:01:44;24.60;99.90
20446;DHT22;10382;49.140;9.234;2023-06-19T05:04:11;24.60;99.90
20446;DHT22;10382;49.140;9.234;2023-06-19T05:06:39;24.60;99.90
20446;DHT22;10382;49.140;9.234;2023-06-19T05:09:08;24.70;99.90
20446;DHT22;10382;49.140;9.234;2023-06-19T05:11:35;24.70;99.90
20446;DHT22;10382;49.140;9.234;2023-06-19T05:14:02;24.70;99.90
20446;DHT22;10382;49.140;9.234;2023-06-19T05:16:28;24.70;99.90
20446;DHT22;10382;49.140;9.234;2023-06-19T05:18:55;24.80;99.90
20446;DHT22;10382;49.140;9.234;2023-06-19T05:21:22;25.00;99.90
20446;DHT22;10382;49.140;9.234;2023-06-19T05:23:51;25.00;99.90
20446;DHT22;10382;49.140;9.234;2023-06-19T05:26:19;25.10;99.90
20446;DHT22;10382;49.140;9.234;2023-06-19T05:28:46;25.20;99.90
20446;DHT22;10382;49.140;9.234;2023-06-19T05:31:13;25.20;99.90
20446;DHT22;10382;49.140;9.234;2023-06-19T05:33:40;25.20;99.90
20446;DHT22;10382;49.140;9.234;2023-06-19T05:36:07;25.10;99.90
20446;DHT22;10382;49.140;9.234;2023-06-19T05:38:34;25.00;99.90
20446;DHT22;10382;49.140;9.234;2023-06-19T05:41:02;25.10;99.90
20446;DHT22;10382;49.140;9.234;2023-06-19T05:43:29;25.00;99.90
20446;DHT22;10382;49.140;9.234;2023-06-19T05:45:57;25.00;99.90
20446;DHT22;10382;49.140;9.234;2023-06-19T05:48:25;25.10;99.90
20446;DHT22;10382;49.140;9.234;2023-06-19T05:50:51;25.20;99.90
20446;DHT22;10382;49.140;9.234;2023-06-19T05:53:18;25.20;99.90
20446;DHT22;10382;49.140;9.234;2023-06-19T05:55:45;25.30;99.90
20446;DHT22;10382;49.140;9.234;2023-06-19T05:58:13;25.30;99.90
20446;DHT22;10382;49.140;9.234;2023-06-19T06:00:40;25.10;99.90
20446;DHT22;10382;49.140;9.234;2023-06-19T06:03:07;25.00;99.90
20446;DHT22;10382;49.140;9.234;2023-06-19T06:05:34;25.10;99.90
20446;DHT22;10382;49.140;9.234;2023-06-19T06:08:02;25.20;99.90
20446;DHT22;10382;49.140;9.234;2023-06-19T06:10:29;25.40;99.90
20446;DHT22;10382;49.140;9.234;2023-06-19T06:12:56;25.50;99.90
20446;DHT22;10382;49.140;9.234;2023-06-19T06:15:24;25.70;99.90
20446;DHT22;10382;49.140;9.234;2023-06-19T06:17:51;25.80;99.90
20446;DHT22;10382;49.140;9.234;2023-06-19T06:20:18;26.10;99.90
20446;DHT22;10382;49.140;9.234;2023-06-19T06:22:44;26.40;99.90
20446;DHT22;10382;49.140;9.234;2023-06-19T06:25:11;26.70;99.90
20446;DHT22;10382;49.140;9.234;2023-06-19T06:27:38;27.00;99.90
20446;DHT22;10382;49.140;9.234;2023-06-19T06:30:06;27.20;99.90
20446;DHT22;10382;49.140;9.234;2023-06-19T06:32:34;27.50;99.90
20446;DHT22;10382;49.140;9.234;2023-06-19T06:35:01;27.60;99.90
20446;DHT22;10382;49.140;9.234;2023-06-19T06:37:28;27.70;99.90
20446;DHT22;10382;49.140;9.234;2023-06-19T06:39:55;27.90;99.90
20446;DHT22;10382;49.140;9.234;2023-06-19T06:42:22;28.30;99.90
20446;DHT22;10382;49.140;9.234;2023-06-19T06:44:48;28.60;99.90
20446;DHT22;10382;49.140;9.234;2023-06-19T06:47:15;28.90;99.90
20446;DHT22;10382;49.140;9.234;2023-06-19T06:49:43;29.20;99.90
20446;DHT22;10382;49.140;9.234;2023-06-19T06:52:10;29.40;99.90
20446;DHT22;10382;49.140;9.234;2023-06-19T06:54:37;29.70;99.90
20446;DHT22;10382;49.140;9.234;2023-06-19T06:57:04;30.10;99.90
20446;DHT22;10382;49.140;9.234;2023-06-19T06:59:31;30.50;99.90
20446;DHT22;10382;49.140;9.234;2023-06-19T07:01:58;30.80;99.90
20446;DHT22;10382;49.140;9.234;2023-06-19T07:04:25;31.00;99.70
20446;DHT22;10382;49.140;9.234;2023-06-19T07:06:53;31.00;98.50
20446;DHT22;10382;49.140;9.234;2023-06-19T07:09:20;30.90;99.30
20446;DHT22;10382;49.140;9.234;2023-06-19T07:11:47;31.10;98.70
20446;DHT22;10382;49.140;9.234;2023-06-19T07:14:14;31.30;97.30
20446;DHT22;10382;49.140;9.234;2023-06-19T07:16:43;31.40;97.00
20446;DHT22;10382;49.140;9.234;2023-06-19T07:19:11;31.60;96.50
20446;DHT22;10382;49.140;9.234;2023-06-19T07:21:38;31.70;95.30
20446;DHT22;10382;49.140;9.234;2023-06-19T07:24:07;31.70;95.10
20446;DHT22;10382;49.140;9.234;2023-06-19T07:26:34;31.70;94.40
20446;DHT22;10382;49.140;9.234;2023-06-19T07:29:01;31.60;94.60
20446;DHT22;10382;49.140;9.234;2023-06-19T07:31:28;31.60;93.20
20446;DHT22;10382;49.140;9.234;2023-06-19T07:33:55;31.10;93.70
20446;DHT22;10382;49.140;9.234;2023-06-19T07:36:21;30.40;95.30
20446;DHT22;10382;49.140;9.234;2023-06-19T07:38:48;30.10;95.80
20446;DHT22;10382;49.140;9.234;2023-06-19T07:41:17;29.50;97.10
20446;DHT22;10382;49.140;9.234;2023-06-19T07:43:43;29.00;97.70
20446;DHT22;10382;49.140;9.234;2023-06-19T07:46:10;28.60;98.70
20446;DHT22;10382;49.140;9.234;2023-06-19T07:48:37;28.20;99.80
20446;DHT22;10382;49.140;9.234;2023-06-19T07:51:04;27.80;99.90
20446;DHT22;10382;49.140;9.234;2023-06-19T07:53:31;27.70;99.90
20446;DHT22;10382;49.140;9.234;2023-06-19T07:55:58;27.80;99.90
20446;DHT22;10382;49.140;9.234;2023-06-19T07:58:26;27.80;99.90
20446;DHT22;10382;49.140;9.234;2023-06-19T08:00:53;27.80;99.90
20446;DHT22;10382;49.140;9.234;2023-06-19T08:03:19;28.00;99.90
20446;DHT22;10382;49.140;9.234;2023-06-19T08:05:47;28.30;99.90
20446;DHT22;10382;49.140;9.234;2023-06-19T08:08:14;28.70;99.90
20446;DHT22;10382;49.140;9.234;2023-06-19T08:10:41;28.80;99.90
20446;DHT22;10382;49.140;9.234;2023-06-19T08:13:07;28.70;99.90
20446;DHT22;10382;49.140;9.234;2023-06-19T08:15:38;28.70;99.90
20446;DHT22;10382;49.140;9.234;2023-06-19T08:18:05;28.80;99.90
20446;DHT22;10382;49.140;9.234;2023-06-19T08:20:31;28.80;99.90
20446;DHT22;10382;49.140;9.234;2023-06-19T08:22:58;28.50;99.90
20446;DHT22;10382;49.140;9.234;2023-06-19T08:25:25;28.40;99.90
20446;DHT22;10382;49.140;9.234;2023-06-19T08:27:52;28.30;99.90
20446;DHT22;10382;49.140;9.234;2023-06-19T08:30:19;28.30;99.90
20446;DHT22;10382;49.140;9.234;2023-06-19T08:32:47;28.40;99.90
20446;DHT22;10382;49.140;9.234;2023-06-19T08:35:14;28.30;99.90
20446;DHT22;10382;49.140;9.234;2023-06-19T08:37:41;28.30;99.90
20446;DHT22;10382;49.140;9.234;2023-06-19T08:40:09;28.20;99.90
20446;DHT22;10382;49.140;9.234;2023-06-19T08:42:37;28.20;99.90
20446;DHT22;10382;49.140;9.234;2023-06-19T08:45:06;28.30;99.90
20446;DHT22;10382;49.140;9.234;2023-06-19T08:47:33;28.50;99.90
20446;DHT22;10382;49.140;9.234;2023-06-19T08:50:01;28.80;99.90
20446;DHT22;10382;49.140;9.234;2023-06-19T08:52:28;29.10;99.90
20446;DHT22;10382;49.140;9.234;2023-06-19T08:54:55;29.10;99.90
20446;DHT22;10382;49.140;9.234;2023-06-19T08:57:33;29.20;99.90
20446;DHT22;10382;49.140;9.234;2023-06-19T09:00:00;29.30;99.90
20446;DHT22;10382;49.140;9.234;2023-06-19T09:02:37;29.70;99.90
20446;DHT22;10382;49.140;9.234;2023-06-19T09:05:11;29.90;99.90
20446;DHT22;10382;49.140;9.234;2023-06-19T09:07:39;30.20;99.90
20446;DHT22;10382;49.140;9.234;2023-06-19T09:10:16;30.30;99.20
20446;DHT22;10382;49.140;9.234;2023-06-19T09:12:43;30.00;99.80
20446;DHT22;10382;49.140;9.234;2023-06-19T09:15:14;29.70;99.90
20446;DHT22;10382;49.140;9.234;2023-06-19T09:17:41;29.50;99.90
20446;DHT22;10382;49.140;9.234;2023-06-19T09:20:10;29.50;99.90
20446;DHT22;10382;49.140;9.234;2023-06-19T09:22:37;29.30;99.90
20446;DHT22;10382;49.140;9.234;2023-06-19T09:25:05;28.80;99.90
20446;DHT22;10382;49.140;9.234;2023-06-19T09:27:35;28.50;99.90
20446;DHT22;10382;49.140;9.234;2023-06-19T09:30:02;28.60;99.90
20446;DHT22;10382;49.140;9.234;2023-06-19T09:32:34;29.00;99.90
20446;DHT22;10382;49.140;9.234;2023-06-19T09:35:01;29.20;99.90
20446;DHT22;10382;49.140;9.234;2023-06-19T09:37:31;29.30;99.90
20446;DHT22;10382;49.140;9.234;2023-06-19T09:40:00;29.60;99.90
20446;DHT22;10382;49.140;9.234;2023-06-19T09:42:34;29.90;99.90
20446;DHT22;10382;49.140;9.234;2023-06-19T09:45:03;30.10;99.20
20446;DHT22;10382;49.140;9.234;2023-06-19T09:47:34;30.20;99.50
20446;DHT22;10382;49.140;9.234;2023-06-19T09:50:03;30.00;99.40
20446;DHT22;10382;49.140;9.234;2023-06-19T09:52:34;30.10;99.90
20446;DHT22;10382;49.140;9.234;2023-06-19T09:55:03;30.50;99.90
20446;DHT22;10382;49.140;9.234;2023-06-19T09:57:33;30.90;98.80
20446;DHT22;10382;49.140;9.234;2023-06-19T10:00:03;31.10;98.10
20446;DHT22;10382;49.140;9.234;2023-06-19T10:02:39;31.00;98.10
20446;DHT22;10382;49.140;9.234;2023-06-19T10:05:08;30.90;98.50
20446;DHT22;10382;49.140;9.234;2023-06-19T10:07:42;31.10;98.40
20446;DHT22;10382;49.140;9.234;2023-06-19T10:10:11;31.10;98.60
20446;DHT22;10382;49.140;9.234;2023-06-19T10:12:41;31.20;98.30
20446;DHT22;10382;49.140;9.234;2023-06-19T10:15:11;31.30;98.10
20446;DHT22;10382;49.140;9.234;2023-06-19T10:17:44;31.30;98.20
20446;DHT22;10382;49.140;9.234;2023-06-19T10:20:25;31.00;98.60
20446;DHT22;10382;49.140;9.234;2023-06-19T10:23:02;30.60;99.40
20446;DHT22;10382;49.140;9.234;2023-06-19T10:25:31;30.40;99.70
20446;DHT22;10382;49.140;9.234;2023-06-19T10:28:00;30.40;99.90
20446;DHT22;10382;49.140;9.234;2023-06-19T10:30:32;30.50;99.90
20446;DHT22;10382;49.140;9.234;2023-06-19T10:33:02;30.50;99.90
20446;DHT22;10382;49.140;9.234;2023-06-19T10:35:38;30.40;99.90
20446;DHT22;10382;49.140;9.234;2023-06-19T10:38:08;30.60;99.90
20446;DHT22;10382;49.140;9.234;2023-06-19T10:40:37;30.90;99.90
20446;DHT22;10382;49.140;9.234;2023-06-19T10:43:04;30.80;98.80
20446;DHT22;10382;49.140;9.234;2023-06-19T10:45:40;30.60;99.40
20446;DHT22;10382;49.140;9.234;2023-06-19T10:48:09;30.60;99.30
20446;DHT22;10382;49.140;9.234;2023-06-19T10:50:38;30.90;99.20
20446;DHT22;10382;49.140;9.234;2023-06-19T10:53:10;31.30;98.60
20446;DHT22;10382;49.140;9.234;2023-06-19T10:55:38;31.70;98.40
20446;DHT22;10382;49.140;9.234;2023-06-19T10:58:06;32.00;96.00
20446;DHT22;10382;49.140;9.234;2023-06-19T11:00:34;31.80;95.40
20446;DHT22;10382;49.140;9.234;2023-06-19T11:03:02;31.60;96.50
20446;DHT22;10382;49.140;9.234;2023-06-19T11:05:31;31.60;97.40
20446;DHT22;10382;49.140;9.234;2023-06-19T11:07:59;31.70;97.30
20446;DHT22;10382;49.140;9.234;2023-06-19T11:10:29;32.00;96.70
20446;DHT22;10382;49.140;9.234;2023-06-19T11:12:58;32.20;96.10
20446;DHT22;10382;49.140;9.234;2023-06-19T11:15:29;32.30;95.60
20446;DHT22;10382;49.140;9.234;2023-06-19T11:17:57;32.60;94.80
20446;DHT22;10382;49.140;9.234;2023-06-19T11:20:25;32.60;95.00
20446;DHT22;10382;49.140;9.234;2023-06-19T11:22:56;32.80;94.10
20446;DHT22;10382;49.140;9.234;2023-06-19T11:25:35;32.60;93.60
20446;DHT22;10382;49.140;9.234;2023-06-19T11:28:04;32.50;94.30
20446;DHT22;10382;49.140;9.234;2023-06-19T11:30:32;32.60;93.60
20446;DHT22;10382;49.140;9.234;2023-06-19T11:33:01;32.80;93.40
20446;DHT22;10382;49.140;9.234;2023-06-19T11:35:34;33.10;93.30
20446;DHT22;10382;49.140;9.234;2023-06-19T11:38:02;33.50;91.90
20446;DHT22;10382;49.140;9.234;2023-06-19T11:40:41;33.70;90.60
20446;DHT22;10382;49.140;9.234;2023-06-19T11:43:09;33.60;90.30
20446;DHT22;10382;49.140;9.234;2023-06-19T11:45:45;33.40;88.80
20446;DHT22;10382;49.140;9.234;2023-06-19T11:48:14;33.20;89.00
20446;DHT22;10382;49.140;9.234;2023-06-19T11:50:42;33.10;89.40
20446;DHT22;10382;49.140;9.234;2023-06-19T11:53:09;33.00;89.50
20446;DHT22;10382;49.140;9.234;2023-06-19T11:55:37;33.00;90.10
20446;DHT22;10382;49.140;9.234;2023-06-19T11:58:06;33.00;88.30
20446;DHT22;10382;49.140;9.234;2023-06-19T12:00:36;33.00;88.60
20446;DHT22;10382;49.140;9.234;2023-06-19T12:03:03;33.10;87.40
20446;DHT22;10382;49.140;9.234;2023-06-19T12:05:30;33.00;86.20
20446;DHT22;10382;49.140;9.234;2023-06-19T12:07:57;32.80;87.10
20446;DHT22;10382;49.140;9.234;2023-06-19T12:10:27;32.70;88.30
20446;DHT22;10382;49.140;9.234;2023-06-19T12:12:55;32.70;90.00
20446;DHT22;10382;49.140;9.234;2023-06-19T12:15:24;32.80;89.90
20446;DHT22;10382;49.140;9.234;2023-06-19T12:17:53;32.80;89.60
20446;DHT22;10382;49.140;9.234;2023-06-19T12:20:23;32.60;89.00
20446;DHT22;10382;49.140;9.234;2023-06-19T12:22:51;32.40;90.30
20446;DHT22;10382;49.140;9.234;2023-06-19T12:25:19;32.30;90.40
20446;DHT22;10382;49.140;9.234;2023-06-19T12:27:46;32.50;90.10
20446;DHT22;10382;49.140;9.234;2023-06-19T12:30:16;32.90;89.80
20446;DHT22;10382;49.140;9.234;2023-06-19T12:32:45;33.30;88.20
20446;DHT22;10382;49.140;9.234;2023-06-19T12:35:15;33.40;87.70
20446;DHT22;10382;49.140;9.234;2023-06-19T12:37:44;33.70;87.40
20446;DHT22;10382;49.140;9.234;2023-06-19T12:40:12;34.10;85.60
20446;DHT22;10382;49.140;9.234;2023-06-19T12:42:40;34.50;84.20
20446;DHT22;10382;49.140;9.234;2023-06-19T12:45:08;34.70;81.60
20446;DHT22;10382;49.140;9.234;2023-06-19T12:47:36;34.80;80.60
20446;DHT22;10382;49.140;9.234;2023-06-19T12:50:07;35.10;79.60
20446;DHT22;10382;49.140;9.234;2023-06-19T12:52:35;35.20;78.80
20446;DHT22;10382;49.140;9.234;2023-06-19T12:55:03;35.30;75.60
20446;DHT22;10382;49.140;9.234;2023-06-19T12:57:30;34.90;75.90
20446;DHT22;10382;49.140;9.234;2023-06-19T12:59:58;34.60;76.80
20446;DHT22;10382;49.140;9.234;2023-06-19T13:02:27;34.50;76.10
20446;DHT22;10382;49.140;9.234;2023-06-19T13:04:55;34.40;76.90
20446;DHT22;10382;49.140;9.234;2023-06-19T13:07:25;34.40;77.60
20446;DHT22;10382;49.140;9.234;2023-06-19T13:09:53;34.40;77.50
20446;DHT22;10382;49.140;9.234;2023-06-19T13:12:22;34.30;78.50
20446;DHT22;10382;49.140;9.234;2023-06-19T13:14:49;34.10;77.90
20446;DHT22;10382;49.140;9.234;2023-06-19T13:17:16;34.00;78.40
20446;DHT22;10382;49.140;9.234;2023-06-19T13:19:44;34.10;78.80
20446;DHT22;10382;49.140;9.234;2023-06-19T13:22:12;34.30;76.80
20446;DHT22;10382;49.140;9.234;2023-06-19T13:24:41;34.30;76.20
20446;DHT22;10382;49.140;9.234;2023-06-19T13:27:09;34.30;76.20
20446;DHT22;10382;49.140;9.234;2023-06-19T13:29:36;34.50;75.30
20446;DHT22;10382;49.140;9.234;2023-06-19T13:32:06;34.60;74.40
20446;DHT22;10382;49.140;9.234;2023-06-19T13:34:34;34.80;75.10
20446;DHT22;10382;49.140;9.234;2023-06-19T13:37:03;35.00;72.50
20446;DHT22;10382;49.140;9.234;2023-06-19T13:39:31;34.80;73.10
20446;DHT22;10382;49.140;9.234;2023-06-19T13:42:00;34.80;73.90
20446;DHT22;10382;49.140;9.234;2023-06-19T13:44:28;34.80;73.60
20446;DHT22;10382;49.140;9.234;2023-06-19T13:46:55;34.90;73.40
20446;DHT22;10382;49.140;9.234;2023-06-19T13:49:22;35.20;73.20
20446;DHT22;10382;49.140;9.234;2023-06-19T13:51:49;35.40;72.90
20446;DHT22;10382;49.140;9.234;2023-06-19T13:54:16;35.60;72.20
20446;DHT22;10382;49.140;9.234;2023-06-19T13:56:43;35.50;69.80
20446;DHT22;10382;49.140;9.234;2023-06-19T13:59:11;34.90;71.50
20446;DHT22;10382;49.140;9.234;2023-06-19T14:01:38;34.60;72.20
20446;DHT22;10382;49.140;9.234;2023-06-19T14:04:06;34.00;73.70
20446;DHT22;10382;49.140;9.234;2023-06-19T14:06:34;33.70;75.40
20446;DHT22;10382;49.140;9.234;2023-06-19T14:09:01;33.80;76.40
20446;DHT22;10382;49.140;9.234;2023-06-19T14:11:28;34.00;76.50
20446;DHT22;10382;49.140;9.234;2023-06-19T14:13:55;34.10;76.10
20446;DHT22;10382;49.140;9.234;2023-06-19T14:16:23;34.30;75.40
20446;DHT22;10382;49.140;9.234;2023-06-19T14:18:50;34.40;73.80
20446;DHT22;10382;49.140;9.234;2023-06-19T14:21:17;34.40;73.60
20446;DHT22;10382;49.140;9.234;2023-06-19T14:23:44;34.40;74.00
20446;DHT22;10382;49.140;9.234;2023-06-19T14:26:11;34.50;73.70
20446;DHT22;10382;49.140;9.234;2023-06-19T14:28:38;34.60;72.90
20446;DHT22;10382;49.140;9.234;2023-06-19T14:31:05;34.40;73.70
20446;DHT22;10382;49.140;9.234;2023-06-19T14:33:33;34.20;75.10
20446;DHT22;10382;49.140;9.234;2023-06-19T14:36:02;34.00;75.00
20446;DHT22;10382;49.140;9.234;2023-06-19T14:38:29;34.00;74.90
20446;DHT22;10382;49.140;9.234;2023-06-19T14:40:59;34.20;74.90
20446;DHT22;10382;49.140;9.234;2023-06-19T14:43:27;34.20;74.10
20446;DHT22;10382;49.140;9.234;2023-06-19T14:45:54;34.40;73.60
20446;DHT22;10382;49.140;9.234;2023-06-19T14:48:21;34.60;73.80
20446;DHT22;10382;49.140;9.234;2023-06-19T14:50:49;34.80;73.00
20446;DHT22;10382;49.140;9.234;2023-06-19T14:53:16;35.10;71.80
20446;DHT22;10382;49.140;9.234;2023-06-19T14:55:43;35.00;71.40
20446;DHT22;10382;49.140;9.234;2023-06-19T14:58:12;35.00;71.80
20446;DHT22;10382;49.140;9.234;2023-06-19T15:00:38;35.10;71.20
20446;DHT22;10382;49.140;9.234;2023-06-19T15:03:06;35.20;71.10
20446;DHT22;10382;49.140;9.234;2023-06-19T15:05:33;35.20;70.50
20446;DHT22;10382;49.140;9.234;2023-06-19T15:08:01;35.30;70.20
20446;DHT22;10382;49.140;9.234;2023-06-19T15:10:28;35.20;69.90
20446;DHT22;10382;49.140;9.234;2023-06-19T15:12:55;35.20;69.90
20446;DHT22;10382;49.140;9.234;2023-06-19T15:15:22;35.20;69.50
20446;DHT22;10382;49.140;9.234;2023-06-19T15:17:49;35.30;69.40
20446;DHT22;10382;49.140;9.234;2023-06-19T15:20:16;35.50;69.00
20446;DHT22;10382;49.140;9.234;2023-06-19T15:22:43;35.60;69.20
20446;DHT22;10382;49.140;9.234;2023-06-19T15:25:12;35.60;67.90
20446;DHT22;10382;49.140;9.234;2023-06-19T15:27:39;35.70;67.70
20446;DHT22;10382;49.140;9.234;2023-06-19T15:30:06;35.70;68.20
20446;DHT22;10382;49.140;9.234;2023-06-19T15:32:33;35.70;68.20
20446;DHT22;10382;49.140;9.234;2023-06-19T15:35:00;35.70;68.10